KHDC

Hammond Northshore Regional Airport

Hammond, Louisiana, USA
METAR KHDC 141335Z AUTO 00000KT CLR 26/22 A3005 RMK AO2 LTG DSNT S PWINO
Observed Flight Rules
Aug-14 @ 13:35 UTC (7 minutes ago)
Clouds
  • Clear skies
Temperatures Readings
Current 26°C / 79°F
Dewpoint 22°C / 72°F
Humidity 79%
Altimeter 30.05" Hg
Pressure 1018 hPa
Elevation 13
METAR KHDC 141335Z AUTO 00000KT CLR 26/22 A3005 RMK AO2 LTG DSNT S PWINO
Observed Flight Rules
Aug-14 @ 13:35 UTC
(7 minutes ago)
Clouds
  • Clear skies
Temperature Dewpoint
26°C / 79°F 22°C / 72°F
Humidity Altimeter Pressure
79% 30.05" Hg 1018 hPa